CheckWX is a tool to help pilots better visualize weather data.  It is not intended as a substitute for an official pre-flight weather briefing.

06:51:35 UTC

DNKT TAF
Katsina / Yaradura Airport
Katsina, Nigeria
TAF DNKT 170340Z 1706/1812 23008KT CAVOK TEMPO 1716/1722 TS SCT012 FEW019CB

Jun-17@
06:00 UTC

Jun-17 @ 06:00 UTC

Jun-18@
12:00 UTC

Jun-18 @ 12:00 UTC

TAF DNKT 170340Z 1706/1812 23008KT CAVOK
Wind
  • 230° at 8 KTS
Conditions
No significant weather
Cloud Levels
  • No significant clouds

Jun-17@
16:00 UTC

Jun-17 @ 16:00 UTC

Jun-17@
22:00 UTC

Jun-17 @ 22:00 UTC

TEMPO 1716/1722 TS SCT012 FEW019CB

Temporary

Temporary Changes expected for less than half the time period

Conditions
Thunderstorm
Cloud Levels
  • Scattered at 1,200' AGL
  • Few at 1,900' AGL